NCAR-RAP Real-Time Weather Data

Output produced by METARs form (10 April 2020  07:15 UTC)
found at http://weather.rap.ucar.edu/surface/
 
KMDT 100656Z 28017G25KT 10SM FEW050 04/M02 A2950 RMK AO2 PK WND 30033/0603 SLP991 T00441022